RAE weather

Aerotec Airport
Rivadavia, Mendoza Province, Argentina

Public forecast

Using degrees Celsius for public forecast. Weather courtesy of forecast.io.

METAR (pilot weather report)

Closest report is El Plumerillo Airport, 27.1 nm (50.3 km) NW. Retrieved 2019/09/23 17:00 UTC (32 minutes ago):

SAME 231700Z 11013KT CAVOK 25/M03 Q1018

TAF (pilot weather forecast)

Closest forecast is El Plumerillo Airport, 27.1 nm (50.3 km) NW. Retrieved 2019/09/23 12:00 UTC (6 hours ago):

TAF SAME 231100Z 2312/2412 18005KT CAVOK TX25/2320Z TN10/2411Z BECMG 2314/2316 05005KT BECMG 2401/2403 20005KT